Time;durP1;ratioP1;P1;durP2;ratioP2;P2;SDS_P1;SDS_P2;PMS_P1;PMS_P2;Temp;Humidity;BMP_temperature;BMP_pressure;BME280_temperature;BME280_humidity;BME280_pressure;Samples;Min_cycle;Max_cycle;Signal;HPM_P1;HPM_P2
2022/09/01 06:19:47;;;;;;;;;;;15.60;99.90;;;;;;5364810;23;20285;-77
2022/09/01 06:22:13;;;;;;;;;;;15.60;99.90;;;;;;4942414;29;20357;-83
2022/09/01 06:26:39;;;;;;;0.20;0.20;;;15.70;99.90;;;;;;5006846;27;1235539;-83
2022/09/01 06:29:09;;;;;;;0.20;0.20;;;15.70;99.90;;;;;;5036743;28;20055;-83
2022/09/01 06:31:38;;;;;;;0.20;0.20;;;15.70;99.90;;;;;;5034033;28;20033;-85
2022/09/01 06:34:07;;;;;;;0.20;0.20;;;15.70;99.90;;;;;;5041699;28;20360;-83
2022/09/01 06:36:36;;;;;;;0.20;0.20;;;15.80;99.90;;;;;;5037291;28;20799;-80
2022/09/01 06:39:03;;;;;;;0.20;0.20;;;15.70;99.90;;;;;;5030558;28;20055;-83
2022/09/01 06:41:30;;;;;;;0.20;0.20;;;15.70;99.90;;;;;;5028482;28;20384;-82
2022/09/01 06:43:56;;;;;;;0.20;0.20;;;15.80;99.90;;;;;;5026704;28;20049;-83
2022/09/01 06:46:26;;;;;;;0.20;0.20;;;15.80;99.90;;;;;;5029821;28;20046;-81
2022/09/01 06:48:52;;;;;;;0.20;0.20;;;15.80;99.90;;;;;;5025668;28;20084;-85
2022/09/01 06:51:21;;;;;;;0.20;0.20;;;15.80;99.90;;;;;;5028987;28;20046;-84
2022/09/01 06:53:55;;;;;;;0.20;0.20;;;16.00;99.90;;;;;;5028094;28;20042;-83
2022/09/01 06:56:32;;;;;;;0.20;0.20;;;16.00;99.90;;;;;;5025319;28;20050;-83
2022/09/01 06:59:04;;;;;;;0.20;0.20;;;16.10;99.90;;;;;;5026767;28;20046;-84
2022/09/01 07:01:31;;;;;;;0.17;0.17;;;16.10;99.90;;;;;;5028950;28;20060;-83
2022/09/01 07:03:57;;;;;;;0.20;0.20;;;16.10;99.90;;;;;;5037615;28;20049;-83
2022/09/01 07:06:26;;;;;;;0.20;0.20;;;16.20;99.90;;;;;;5037130;28;20045;-83
2022/09/01 07:08:55;;;;;;;0.20;0.20;;;16.30;99.90;;;;;;5034383;28;20065;-83
2022/09/01 07:11:24;;;;;;;0.20;0.20;;;16.20;99.90;;;;;;5044803;28;20102;-85
2022/09/01 07:13:54;;;;;;;0.20;0.20;;;16.30;99.90;;;;;;5033916;28;20117;-84
2022/09/01 07:16:21;;;;;;;0.20;0.20;;;16.30;99.90;;;;;;5030871;28;20100;-83
2022/09/01 07:18:55;;;;;;;0.13;0.13;;;16.40;99.90;;;;;;5041090;28;20072;-84
2022/09/01 07:21:22;;;;;;;0.20;0.20;;;16.30;99.90;;;;;;5033983;28;20041;-83
2022/09/01 07:23:47;;;;;;;0.20;0.20;;;16.50;99.90;;;;;;5032364;28;20053;-85
2022/09/01 07:26:21;;;;;;;0.10;0.10;;;16.50;99.90;;;;;;5034979;28;20438;-85
2022/09/01 07:28:49;;;;;;;0.20;0.20;;;16.50;99.90;;;;;;5030839;28;20065;-85
2022/09/01 07:31:21;;;;;;;0.20;0.20;;;16.60;99.90;;;;;;5033078;28;20049;-83
2022/09/01 07:33:49;;;;;;;0.20;0.20;;;16.80;99.90;;;;;;5031949;28;20050;-84
2022/09/01 07:36:17;;;;;;;0.20;0.20;;;16.80;99.90;;;;;;5027863;28;20030;-84
2022/09/01 07:38:42;;;;;;;0.20;0.20;;;16.90;99.90;;;;;;5022364;28;20049;-85
2022/09/01 07:41:12;;;;;;;0.20;0.20;;;16.90;99.90;;;;;;5022328;28;20065;-84
2022/09/01 07:43:41;;;;;;;0.13;0.13;;;17.00;99.90;;;;;;5020670;28;20053;-84
2022/09/01 07:46:07;;;;;;;0.20;0.20;;;17.10;99.90;;;;;;5020259;28;20156;-85
2022/09/01 07:48:33;;;;;;;0.10;0.10;;;17.10;99.90;;;;;;5021909;28;20129;-84
2022/09/01 07:50:59;;;;;;;0.20;0.20;;;17.20;99.90;;;;;;5021817;28;20183;-83
2022/09/01 07:53:30;;;;;;;0.20;0.20;;;17.20;99.90;;;;;;5024553;28;20048;-84
2022/09/01 07:56:00;;;;;;;0.20;0.20;;;17.30;99.90;;;;;;5022066;28;20048;-88
2022/09/01 07:58:28;;;;;;;0.30;0.30;;;17.40;99.90;;;;;;5021782;28;20463;-85
2022/09/01 08:00:55;;;;;;;0.20;0.20;;;17.50;99.90;;;;;;5016257;28;20054;-88
2022/09/01 08:03:24;;;;;;;0.30;0.30;;;17.60;99.90;;;;;;5013560;28;20034;-86
2022/09/01 08:05:56;;;;;;;0.20;0.20;;;17.60;99.90;;;;;;5021191;28;20157;-88
2022/09/01 08:08:22;;;;;;;0.17;0.17;;;17.70;99.90;;;;;;5017876;28;20565;-86
2022/09/01 08:10:48;;;;;;;0.20;0.20;;;17.70;99.90;;;;;;5024326;28;20048;-88
2022/09/01 08:13:15;;;;;;;0.15;0.15;;;17.70;99.90;;;;;;5029400;28;20052;-87
2022/09/01 08:15:41;;;;;;;0.20;0.20;;;17.70;99.90;;;;;;5029208;28;20373;-85
2022/09/01 08:18:08;;;;;;;0.20;0.20;;;17.80;99.90;;;;;;5017130;28;20100;-86
2022/09/01 08:20:40;;;;;;;0.20;0.20;;;17.80;99.90;;;;;;5018441;28;20045;-86
2022/09/01 08:23:06;;;;;;;0.20;0.20;;;17.80;99.90;;;;;;5019044;28;20053;-87
2022/09/01 08:25:34;;;;;;;0.15;0.15;;;17.90;99.90;;;;;;5017194;28;20061;-85
2022/09/01 08:28:01;;;;;;;0.20;0.20;;;17.80;99.90;;;;;;5023976;28;20050;-84
2022/09/01 08:30:28;;;;;;;0.20;0.20;;;18.00;99.90;;;;;;5029679;28;20128;-82
2022/09/01 08:32:54;;;;;;;0.20;0.20;;;18.10;99.90;;;;;;5043990;28;20041;-82
2022/09/01 08:35:20;;;;;;;0.20;0.20;;;18.10;99.90;;;;;;5023014;28;20060;-83
2022/09/01 08:37:45;;;;;;;0.20;0.20;;;18.20;99.90;;;;;;5020462;28;20048;-82
2022/09/01 08:40:16;;;;;;;0.20;0.20;;;18.20;99.90;;;;;;5020569;28;20432;-83
2022/09/01 08:43:01;;;;;;;0.20;0.20;;;18.30;99.90;;;;;;5009718;28;20137;-82
2022/09/01 08:45:41;;;;;;;0.20;0.20;;;18.30;99.90;;;;;;5020626;28;20049;-82
2022/09/01 08:48:23;;;;;;;0.20;0.20;;;18.50;99.90;;;;;;5017608;28;20046;-84
2022/09/01 08:50:56;;;;;;;0.20;0.20;;;18.50;99.90;;;;;;5029690;28;20518;-83
2022/09/01 08:53:37;;;;;;;0.20;0.20;;;18.60;99.90;;;;;;5028140;28;20121;-84
2022/09/01 08:56:03;;;;;;;;;;;18.70;99.90;;;;;;5028229;28;20055;-84
2022/09/01 08:58:30;;;;;;;0.20;0.20;;;18.70;99.90;;;;;;5030301;28;19977;-84
2022/09/01 09:01:06;;;;;;;0.20;0.20;;;18.80;99.90;;;;;;5025091;28;20092;-84
2022/09/01 09:03:44;;;;;;;0.20;0.20;;;18.90;99.90;;;;;;5028675;28;20064;-84
2022/09/01 09:06:16;;;;;;;0.20;0.20;;;18.90;99.90;;;;;;5027837;28;20072;-83
2022/09/01 09:09:05;;;;;;;0.20;0.20;;;19.00;99.90;;;;;;5026128;28;20436;-83
2022/09/01 09:11:50;;;;;;;0.20;0.20;;;19.10;99.90;;;;;;5017832;28;20429;-83
2022/09/01 09:14:36;;;;;;;0.20;0.20;;;19.10;99.90;;;;;;5014799;28;20487;-83
2022/09/01 09:17:03;;;;;;;0.20;0.20;;;19.20;99.90;;;;;;5024986;28;20050;-83
2022/09/01 09:19:47;;;;;;;0.20;0.20;;;19.20;99.90;;;;;;5016719;28;20253;-83
2022/09/01 09:22:15;;;;;;;0.20;0.20;;;19.30;99.90;;;;;;5022679;28;20050;-84
2022/09/01 09:24:50;;;;;;;0.20;0.20;;;19.30;99.90;;;;;;5015690;28;20178;-83
2022/09/01 09:27:46;;;;;;;0.20;0.20;;;19.20;99.90;;;;;;5021960;28;20045;-85
2022/09/01 09:30:25;;;;;;;0.20;0.20;;;19.40;99.90;;;;;;5018987;28;20072;-83
2022/09/01 09:33:03;;;;;;;0.20;0.20;;;19.40;99.90;;;;;;5014663;28;20649;-84
2022/09/01 09:35:33;;;;;;;0.20;0.20;;;19.50;99.90;;;;;;5020305;28;20535;-89
2022/09/01 09:38:18;;;;;;;0.20;0.20;;;19.50;99.90;;;;;;5030584;28;20041;-85
2022/09/01 09:41:17;;;;;;;0.13;0.13;;;19.60;99.90;;;;;;5021787;28;20121;-87
2022/09/01 09:43:57;;;;;;;0.20;0.20;;;19.60;99.90;;;;;;4994483;28;20115;-84
2022/09/01 09:46:31;;;;;;;0.10;0.10;;;19.70;99.90;;;;;;5018188;28;20128;-83
2022/09/01 09:49:15;;;;;;;0.20;0.20;;;19.80;99.90;;;;;;5021947;28;20065;-84
2022/09/01 09:51:48;;;;;;;0.20;0.20;;;19.80;99.90;;;;;;5024677;28;20060;-87
2022/09/01 09:54:22;;;;;;;0.20;0.20;;;19.90;99.90;;;;;;5029484;28;20037;-87
2022/09/01 09:57:06;;;;;;;0.20;0.20;;;20.00;99.90;;;;;;5028765;28;20046;-87
2022/09/01 09:59:46;;;;;;;0.20;0.20;;;20.00;99.90;;;;;;5015324;28;20046;-85
2022/09/01 10:02:33;;;;;;;0.20;0.20;;;20.10;99.90;;;;;;5035117;28;20046;-86
2022/09/01 10:05:00;;;;;;;0.20;0.20;;;20.10;99.80;;;;;;5020193;28;20060;-87
2022/09/01 10:07:35;;;;;;;0.20;0.20;;;20.20;99.70;;;;;;5021317;28;20036;-85
2022/09/01 10:10:05;;;;;;;0.20;0.20;;;20.20;99.30;;;;;;5015526;28;20038;-87
2022/09/01 10:12:32;;;;;;;0.20;0.20;;;20.30;99.00;;;;;;5010107;28;20049;-89
2022/09/01 10:15:09;;;;;;;0.15;0.15;;;20.40;98.90;;;;;;5026259;28;20052;-82
2022/09/01 10:17:38;;;;;;;0.20;0.20;;;20.40;98.80;;;;;;5013709;28;20168;-88
2022/09/01 10:20:07;;;;;;;0.20;0.20;;;20.50;98.50;;;;;;5020303;28;20041;-90
2022/09/01 10:22:35;;;;;;;0.20;0.20;;;20.50;98.50;;;;;;5011428;28;20054;-87
2022/09/01 10:25:03;;;;;;;0.10;0.10;;;20.60;98.20;;;;;;5018449;28;20046;-88
2022/09/01 10:27:33;;;;;;;0.20;0.20;;;20.60;98.00;;;;;;5034464;28;20048;-89
2022/09/01 10:30:15;;;;;;;0.20;0.20;;;20.70;98.00;;;;;;5027245;28;20034;-87
2022/09/01 10:32:43;;;;;;;0.20;0.20;;;20.80;97.90;;;;;;5025959;28;20136;-91
2022/09/01 10:35:15;;;;;;;0.20;0.20;;;20.80;97.70;;;;;;5024225;28;20045;-87
2022/09/01 10:37:41;;;;;;;0.20;0.20;;;20.80;97.50;;;;;;5034478;28;20591;-87
2022/09/01 10:40:27;;;;;;;0.20;0.20;;;20.90;97.30;;;;;;5028367;28;20111;-87
2022/09/01 10:42:57;;;;;;;0.20;0.20;;;21.00;97.20;;;;;;5013343;28;20053;-85
2022/09/01 10:45:34;;;;;;;0.20;0.20;;;21.10;97.40;;;;;;5024655;28;20049;-88
2022/09/01 10:48:22;;;;;;;0.20;0.20;;;21.20;97.10;;;;;;5017668;28;20124;-90
2022/09/01 10:50:50;;;;;;;0.20;0.20;;;21.30;97.00;;;;;;5016603;28;20061;-86
2022/09/01 10:53:34;;;;;;;0.20;0.20;;;21.40;96.90;;;;;;5022894;28;20042;-89
2022/09/01 10:56:26;;;;;;;0.13;0.13;;;21.50;96.40;;;;;;5017490;28;20046;-87
2022/09/01 10:58:59;;;;;;;0.30;0.30;;;21.60;96.40;;;;;;5029541;28;20041;-88
2022/09/01 11:01:40;;;;;;;0.20;0.20;;;21.70;96.10;;;;;;5030293;28;20118;-87
2022/09/01 11:04:12;;;;;;;0.20;0.20;;;21.80;95.70;;;;;;5035545;28;20486;-89
2022/09/01 11:06:40;;;;;;;0.20;0.20;;;21.70;95.60;;;;;;5042739;28;20485;-85
2022/09/01 11:09:36;;;;;;;0.20;0.20;;;21.80;95.50;;;;;;5021098;28;20065;-85
2022/09/01 11:12:31;;;;;;;0.20;0.20;;;21.90;95.40;;;;;;5022455;28;20140;-84
2022/09/01 11:15:01;;;;;;;0.20;0.20;;;21.90;95.10;;;;;;5025152;28;20037;-89
2022/09/01 11:17:38;;;;;;;0.20;0.20;;;21.90;94.80;;;;;;5029269;28;20476;-88
2022/09/01 11:20:09;;;;;;;0.20;0.20;;;21.80;94.30;;;;;;5015147;28;20542;-86
2022/09/01 11:22:40;;;;;;;0.20;0.20;;;21.80;93.70;;;;;;5030892;28;20053;-85
2022/09/01 11:25:12;;;;;;;0.20;0.20;;;21.70;93.40;;;;;;5034019;28;20060;-87
2022/09/01 11:27:47;;;;;;;0.20;0.20;;;21.70;93.00;;;;;;5026829;28;20196;-87
2022/09/01 11:30:19;;;;;;;0.20;0.20;;;21.60;93.00;;;;;;5016246;28;20037;-86
2022/09/01 11:32:50;;;;;;;0.20;0.20;;;21.70;92.50;;;;;;5033905;28;20037;-86
2022/09/01 11:35:20;;;;;;;0.20;0.20;;;21.60;92.20;;;;;;5029669;28;20068;-87
2022/09/01 11:37:51;;;;;;;0.28;0.28;;;21.70;92.40;;;;;;5013237;28;20048;-88
2022/09/01 11:40:25;;;;;;;0.30;0.30;;;21.80;92.80;;;;;;5017739;28;20361;-85
2022/09/01 11:42:54;;;;;;;0.20;0.20;;;22.00;93.00;;;;;;5014856;28;20068;-87
2022/09/01 11:45:25;;;;;;;0.20;0.20;;;22.20;92.50;;;;;;5013911;28;20385;-89
2022/09/01 11:47:56;;;;;;;0.20;0.20;;;22.20;92.10;;;;;;5043819;28;20092;-89
2022/09/01 11:50:31;;;;;;;0.20;0.20;;;22.20;91.60;;;;;;5033089;28;20061;-86
2022/09/01 11:53:20;;;;;;;0.20;0.20;;;22.30;91.60;;;;;;5025319;28;20304;-86
2022/09/01 11:55:49;;;;;;;0.20;0.20;;;22.50;91.60;;;;;;5011814;28;20388;-91
2022/09/01 11:58:38;;;;;;;0.20;0.20;;;22.70;91.50;;;;;;5024167;28;20242;-86
2022/09/01 12:01:18;;;;;;;0.20;0.20;;;23.00;91.60;;;;;;5013000;28;20137;-87
2022/09/01 12:03:45;;;;;;;0.20;0.20;;;23.20;91.30;;;;;;5015797;28;20076;-87
2022/09/01 12:06:25;;;;;;;0.20;0.20;;;23.40;91.20;;;;;;5017660;28;20492;-88
2022/09/01 12:08:56;;;;;;;0.20;0.20;;;23.70;91.00;;;;;;5016407;28;20045;-88
2022/09/01 12:11:30;;;;;;;0.20;0.20;;;23.90;90.40;;;;;;5010964;28;20415;-87
2022/09/01 12:13:58;;;;;;;0.20;0.20;;;24.00;90.00;;;;;;5026567;28;20172;-87
2022/09/01 12:16:24;;;;;;;0.20;0.20;;;24.10;88.80;;;;;;5012124;28;20042;-83
2022/09/01 12:18:52;;;;;;;0.20;0.20;;;24.20;89.40;;;;;;5018442;28;20539;-86
2022/09/01 12:21:23;;;;;;;0.20;0.20;;;24.40;89.40;;;;;;5031773;28;20365;-88
2022/09/01 12:23:49;;;;;;;0.20;0.20;;;24.60;88.90;;;;;;5035178;28;20091;-87
2022/09/01 12:26:19;;;;;;;0.20;0.20;;;24.80;88.10;;;;;;5030093;28;20050;-87
2022/09/01 12:28:48;;;;;;;0.20;0.20;;;25.00;87.30;;;;;;5030316;28;20037;-88
2022/09/01 12:31:22;;;;;;;0.20;0.20;;;25.20;86.80;;;;;;5034746;28;20202;-87
2022/09/01 12:33:49;;;;;;;0.20;0.20;;;25.40;85.90;;;;;;5029234;28;20045;-85
2022/09/01 12:36:25;;;;;;;0.20;0.20;;;25.60;85.90;;;;;;5030965;28;20056;-87
2022/09/01 12:38:56;;;;;;;0.20;0.20;;;25.80;84.50;;;;;;5029993;28;20061;-88
2022/09/01 12:41:37;;;;;;;0.20;0.20;;;25.90;83.90;;;;;;5031891;28;20053;-88
2022/09/01 12:44:33;;;;;;;0.20;0.20;;;26.10;83.00;;;;;;5029247;28;20480;-89
2022/09/01 12:47:08;;;;;;;0.20;0.20;;;26.20;81.60;;;;;;5017271;28;20042;-88
2022/09/01 12:49:44;;;;;;;0.20;0.20;;;26.40;81.40;;;;;;5012111;28;20037;-87
2022/09/01 12:52:24;;;;;;;0.20;0.20;;;26.40;79.70;;;;;;5009130;28;20038;-88
2022/09/01 12:54:57;;;;;;;0.30;0.30;;;26.40;79.80;;;;;;5012691;28;20053;-85
2022/09/01 12:57:38;;;;;;;0.20;0.20;;;26.40;79.10;;;;;;5011090;28;20667;-88
2022/09/01 13:00:30;;;;;;;0.20;0.20;;;26.50;78.60;;;;;;5010117;28;20061;-85
2022/09/01 13:03:04;;;;;;;0.20;0.20;;;26.50;78.60;;;;;;5015946;28;20132;-86
2022/09/01 13:05:42;;;;;;;0.30;0.30;;;26.60;78.10;;;;;;5031495;28;20095;-85
2022/09/01 13:08:15;;;;;;;0.20;0.20;;;26.60;77.60;;;;;;5032315;28;20041;-87
2022/09/01 13:10:48;;;;;;;0.20;0.20;;;26.70;76.60;;;;;;5030737;28;20500;-88
2022/09/01 13:13:16;;;;;;;0.30;0.30;;;26.70;75.80;;;;;;5030101;28;20053;-85
2022/09/01 13:15:49;;;;;;;0.30;0.30;;;26.60;76.30;;;;;;5029289;28;20045;-86
2022/09/01 13:18:18;;;;;;;0.20;0.20;;;26.70;76.50;;;;;;5029792;28;20106;-86
2022/09/01 13:20:44;;;;;;;0.20;0.20;;;26.90;76.90;;;;;;5031164;28;20056;-86
2022/09/01 13:23:11;;;;;;;0.20;0.20;;;26.90;75.60;;;;;;5031101;28;20034;-88
2022/09/01 13:25:38;;;;;;;0.20;0.20;;;27.00;73.90;;;;;;5014258;28;20212;-87
2022/09/01 13:28:06;;;;;;;0.20;0.20;;;27.10;74.30;;;;;;5027084;28;20045;-86
2022/09/01 13:30:32;;;;;;;0.30;0.30;;;27.10;74.00;;;;;;5037035;28;20080;-88
2022/09/01 13:32:58;;;;;;;0.20;0.20;;;27.10;73.50;;;;;;5038443;28;20063;-87
2022/09/01 13:35:24;;;;;;;0.20;0.20;;;27.10;73.20;;;;;;5030531;28;20508;-86
2022/09/01 13:37:50;;;;;;;0.20;0.20;;;26.90;72.60;;;;;;5018037;28;20513;-88
2022/09/01 13:40:20;;;;;;;0.20;0.20;;;26.90;73.30;;;;;;5030509;28;20077;-86
2022/09/01 13:42:48;;;;;;;0.20;0.20;;;26.90;73.80;;;;;;5016865;28;20052;-90
2022/09/01 13:45:17;;;;;;;0.20;0.20;;;26.90;73.60;;;;;;5012620;28;20053;-87
2022/09/01 13:47:44;;;;;;;0.20;0.20;;;27.00;73.10;;;;;;5011420;28;20396;-90
2022/09/01 13:50:12;;;;;;;0.20;0.20;;;27.00;71.90;;;;;;5011318;28;20120;-88
2022/09/01 13:52:43;;;;;;;0.20;0.20;;;27.00;72.00;;;;;;5010604;28;20046;-89
2022/09/01 13:55:16;;;;;;;0.20;0.20;;;26.90;71.70;;;;;;5015325;28;20393;-89
2022/09/01 13:57:42;;;;;;;0.20;0.20;;;27.00;71.50;;;;;;5010040;28;20050;-90
2022/09/01 14:00:12;;;;;;;0.22;0.22;;;26.90;71.40;;;;;;5011642;28;20424;-86
2022/09/01 14:02:48;;;;;;;0.30;0.30;;;26.90;71.50;;;;;;5021722;28;20056;-86
2022/09/01 14:05:20;;;;;;;0.22;0.22;;;26.90;71.40;;;;;;5028469;28;20060;-82
2022/09/01 14:07:47;;;;;;;0.20;0.20;;;26.90;71.00;;;;;;5013513;28;20111;-85
2022/09/01 14:10:14;;;;;;;0.20;0.20;;;26.90;71.00;;;;;;5025069;28;20049;-83
2022/09/01 14:12:41;;;;;;;0.22;0.22;;;26.90;70.00;;;;;;5010086;28;20046;-89
2022/09/01 14:15:09;;;;;;;0.20;0.20;;;26.70;69.70;;;;;;5031778;28;20056;-86
2022/09/01 14:17:36;;;;;;;0.20;0.20;;;26.40;68.80;;;;;;5032975;28;20136;-89
2022/09/01 14:20:05;;;;;;;0.20;0.20;;;26.20;69.10;;;;;;5041108;28;20042;-89
2022/09/01 14:22:32;;;;;;;0.20;0.20;;;26.00;68.80;;;;;;5041808;28;20073;-88
2022/09/01 14:24:58;;;;;;;0.20;0.20;;;25.90;70.10;;;;;;5035876;28;20061;-86
2022/09/01 14:27:24;;;;;;;0.20;0.20;;;26.00;70.60;;;;;;5017053;28;20050;-87
2022/09/01 14:29:51;;;;;;;0.20;0.20;;;26.20;70.60;;;;;;5013835;28;20088;-88
2022/09/01 14:32:21;;;;;;;0.20;0.20;;;26.50;70.70;;;;;;5022254;28;20076;-86
2022/09/01 14:34:48;;;;;;;0.30;0.30;;;26.80;70.40;;;;;;5028466;28;20050;-91
2022/09/01 14:37:14;;;;;;;0.40;0.40;;;27.10;69.70;;;;;;5027213;28;20038;-86
2022/09/01 14:39:40;;;;;;;0.20;0.20;;;27.00;68.30;;;;;;5009010;28;20057;-87
2022/09/01 14:42:06;;;;;;;0.30;0.30;;;26.80;67.70;;;;;;5018433;28;20041;-87
2022/09/01 14:44:37;;;;;;;0.20;0.20;;;26.70;68.30;;;;;;5022228;28;20091;-86
2022/09/01 14:47:03;;;;;;;0.30;0.30;;;26.60;68.30;;;;;;5020364;28;20053;-85
2022/09/01 14:49:34;;;;;;;0.20;0.20;;;26.60;68.10;;;;;;5019067;28;20128;-85
2022/09/01 14:52:01;;;;;;;0.25;0.25;;;26.70;68.10;;;;;;5015409;28;20079;-85
2022/09/01 14:54:27;;;;;;;0.20;0.20;;;26.80;68.10;;;;;;5039529;28;20057;-84
2022/09/01 14:56:53;;;;;;;0.20;0.20;;;26.80;68.10;;;;;;5017999;28;20087;-85
2022/09/01 14:59:19;;;;;;;0.20;0.20;;;26.80;67.50;;;;;;5025663;28;20099;-88
2022/09/01 15:01:44;;;;;;;0.20;0.20;;;26.90;67.10;;;;;;5029472;28;20049;-86
2022/09/01 15:04:10;;;;;;;0.20;0.20;;;26.80;66.20;;;;;;5030114;28;20046;-83
2022/09/01 15:06:35;;;;;;;0.20;0.20;;;26.70;65.90;;;;;;5014350;28;20049;-86
2022/09/01 15:09:02;;;;;;;0.20;0.20;;;26.40;65.70;;;;;;5021119;28;20279;-88
2022/09/01 15:11:27;;;;;;;0.20;0.20;;;26.40;66.90;;;;;;5029924;28;20049;-87
2022/09/01 15:13:54;;;;;;;0.20;0.20;;;26.20;66.50;;;;;;5024483;28;20042;-85
2022/09/01 15:16:23;;;;;;;0.20;0.20;;;26.10;67.10;;;;;;5028258;28;20052;-85
2022/09/01 15:18:48;;;;;;;0.20;0.20;;;26.30;68.30;;;;;;5028647;28;20041;-88
2022/09/01 15:21:32;;;;;;;0.20;0.20;;;26.80;67.80;;;;;;5021151;28;20396;-84
2022/09/01 15:23:58;;;;;;;0.20;0.20;;;27.20;67.60;;;;;;5016598;28;20401;-90
2022/09/01 15:26:25;;;;;;;0.20;0.20;;;27.50;67.50;;;;;;5026502;28;20581;-88
2022/09/01 15:28:50;;;;;;;0.30;0.30;;;27.70;66.10;;;;;;5032729;28;20049;-89
2022/09/01 15:31:17;;;;;;;0.20;0.20;;;27.50;64.90;;;;;;5021550;28;20049;-87
2022/09/01 15:33:43;;;;;;;0.28;0.28;;;27.30;64.90;;;;;;5021066;28;20045;-83
2022/09/01 15:36:18;;;;;;;0.20;0.20;;;27.30;65.00;;;;;;5022072;28;20094;-83
2022/09/01 15:38:44;;;;;;;0.20;0.20;;;27.20;64.40;;;;;;5044819;28;20120;-85
2022/09/01 15:41:19;;;;;;;0.20;0.20;;;27.00;63.70;;;;;;5026564;28;20069;-85
2022/09/01 15:43:45;;;;;;;0.20;0.20;;;26.70;64.00;;;;;;5015734;28;20384;-85
2022/09/01 15:46:12;;;;;;;0.20;0.20;;;26.40;64.30;;;;;;5019515;28;20053;-84
2022/09/01 15:48:38;;;;;;;0.20;0.20;;;26.20;63.90;;;;;;5018809;28;20504;-84
2022/09/01 15:51:22;;;;;;;0.20;0.20;;;25.80;63.80;;;;;;5024425;28;20103;-83
2022/09/01 15:54:00;;;;;;;0.20;0.20;;;25.30;63.70;;;;;;5017945;28;20049;-82
2022/09/01 15:56:26;;;;;;;0.20;0.20;;;25.30;64.20;;;;;;5023323;28;20485;-83
2022/09/01 15:58:52;;;;;;;0.20;0.20;;;25.10;64.50;;;;;;5029193;28;20053;-84
2022/09/01 16:01:18;;;;;;;0.20;0.20;;;24.80;64.70;;;;;;5032414;28;20069;-83
2022/09/01 16:03:44;;;;;;;0.30;0.30;;;24.70;65.30;;;;;;5030292;28;20244;-83
2022/09/01 16:06:13;;;;;;;0.20;0.20;;;24.50;65.40;;;;;;5013678;28;20049;-83
2022/09/01 16:08:40;;;;;;;0.20;0.20;;;24.40;65.50;;;;;;5018080;28;20077;-83
2022/09/01 16:11:08;;;;;;;0.20;0.20;;;24.30;65.70;;;;;;5030540;28;20456;-83
2022/09/01 16:13:35;;;;;;;0.20;0.20;;;24.20;66.00;;;;;;5013225;28;20468;-82
2022/09/01 16:16:03;;;;;;;0.20;0.20;;;24.10;66.20;;;;;;5025522;28;20044;-82
2022/09/01 16:18:39;;;;;;;0.20;0.20;;;24.00;65.80;;;;;;5029868;28;20103;-83
2022/09/01 16:21:25;;;;;;;0.20;0.20;;;23.90;66.00;;;;;;5030315;28;20112;-83
2022/09/01 16:23:51;;;;;;;0.20;0.20;;;23.80;65.70;;;;;;5013005;28;20100;-83
2022/09/01 16:26:19;;;;;;;0.30;0.30;;;23.80;66.00;;;;;;5011427;28;20444;-83
2022/09/01 16:28:55;;;;;;;0.20;0.20;;;23.70;66.10;;;;;;5026101;28;20048;-83
2022/09/01 16:31:26;;;;;;;0.20;0.20;;;23.60;66.40;;;;;;5031339;28;20049;-82
2022/09/01 16:33:55;;;;;;;0.20;0.20;;;23.50;66.40;;;;;;5029788;28;20056;-83
2022/09/01 16:37:05;;;;;;;0.20;0.20;;;23.50;66.70;;;;;;5013307;28;20054;-82
2022/09/01 16:39:46;;;;;;;0.20;0.20;;;23.50;66.80;;;;;;4989765;28;20089;-84
2022/09/01 16:42:41;;;;;;;0.20;0.20;;;23.40;67.00;;;;;;5010487;28;20042;-83
2022/09/01 16:45:26;;;;;;;0.20;0.20;;;23.50;67.40;;;;;;5015300;28;20060;-83
2022/09/01 16:48:09;;;;;;;0.20;0.20;;;24.10;69.40;;;;;;5026441;28;20107;-83
2022/09/01 16:50:37;;;;;;;0.20;0.20;;;24.90;68.10;;;;;;5029457;28;20469;-84
2022/09/01 16:53:53;;;;;;;0.30;0.30;;;25.50;68.20;;;;;;5013410;28;20068;-83
2022/09/01 16:56:51;;;;;;;0.30;0.30;;;26.20;66.40;;;;;;5014190;28;20121;-84
2022/09/01 16:59:45;;;;;;;0.20;0.20;;;26.40;64.50;;;;;;5011250;28;20041;-82
2022/09/01 17:02:37;;;;;;;0.30;0.30;;;26.20;63.90;;;;;;5012537;28;20061;-83
2022/09/01 17:05:19;;;;;;;0.20;0.20;;;25.90;63.50;;;;;;5011295;28;20041;-84
2022/09/01 17:07:49;;;;;;;0.20;0.20;;;25.50;63.40;;;;;;5018791;28;20045;-82
2022/09/01 17:10:32;;;;;;;0.28;0.28;;;25.20;63.50;;;;;;5030039;28;20072;-83
2022/09/01 17:13:19;;;;;;;0.22;0.22;;;24.90;63.60;;;;;;5030106;28;20045;-84
2022/09/01 17:15:54;;;;;;;0.20;0.20;;;24.70;64.10;;;;;;5025793;28;20110;-84
2022/09/01 17:18:43;;;;;;;0.20;0.20;;;24.40;64.10;;;;;;5024197;28;20132;-85
2022/09/01 17:21:25;;;;;;;0.20;0.20;;;24.10;64.50;;;;;;5030304;28;20048;-84
2022/09/01 17:23:57;;;;;;;0.20;0.20;;;23.90;64.90;;;;;;5028207;28;20053;-82
2022/09/01 17:26:25;;;;;;;0.20;0.20;;;23.70;65.10;;;;;;5029261;28;20500;-82
2022/09/01 17:29:06;;;;;;;0.20;0.20;;;23.50;65.00;;;;;;5009709;28;20543;-83
2022/09/01 17:31:47;;;;;;;0.30;0.30;;;23.30;65.30;;;;;;5009442;28;20085;-83
2022/09/01 17:34:19;;;;;;;;;;;23.10;65.60;;;;;;5032112;28;20056;-84
2022/09/01 17:37:05;;;;;;;0.20;0.20;;;23.00;66.00;;;;;;5028564;28;20031;-84
2022/09/01 17:39:30;;;;;;;0.20;0.20;;;22.80;66.80;;;;;;5026387;28;20041;-82
2022/09/01 17:42:01;;;;;;;0.20;0.20;;;22.70;66.50;;;;;;5027443;28;20507;-84
2022/09/01 17:44:41;;;;;;;;;;;22.60;66.60;;;;;;5031627;28;20048;-84
2022/09/01 17:47:24;;;;;;;0.28;0.28;;;22.50;66.60;;;;;;5028633;28;19921;-83
2022/09/01 17:50:06;;;;;;;0.20;0.20;;;22.30;66.70;;;;;;5028429;28;20049;-84
2022/09/01 17:53:09;;;;;;;0.20;0.20;;;22.20;67.50;;;;;;5029290;28;20057;-84
2022/09/01 17:55:47;;;;;;;0.28;0.28;;;22.10;67.20;;;;;;5028153;28;20492;-83
2022/09/01 17:58:36;;;;;;;0.20;0.20;;;22.00;67.30;;;;;;5026845;28;20088;-83
2022/09/01 18:01:22;;;;;;;0.20;0.20;;;21.90;67.50;;;;;;5019211;28;20061;-83
2022/09/01 18:04:05;;;;;;;0.25;0.25;;;21.80;67.60;;;;;;5008590;28;20042;-83
2022/09/01 18:06:38;;;;;;;0.22;0.22;;;21.70;67.90;;;;;;5009728;28;20480;-83
2022/09/01 18:09:05;;;;;;;0.30;0.30;;;21.60;68.00;;;;;;5025734;28;20382;-83
2022/09/01 18:11:48;;;;;;;0.20;0.20;;;21.50;68.20;;;;;;5027779;28;20053;-83
2022/09/01 18:14:15;;;;;;;0.20;0.20;;;21.40;68.30;;;;;;5030183;28;20422;-83
2022/09/01 18:16:53;;;;;;;0.20;0.20;;;21.40;68.60;;;;;;5028376;28;20088;-83
2022/09/01 18:19:23;;;;;;;0.20;0.20;;;21.30;69.00;;;;;;5028447;28;20216;-83
2022/09/01 18:21:54;;;;;;;0.30;0.30;;;21.10;69.40;;;;;;5028668;28;20230;-84
2022/09/01 18:24:31;;;;;;;0.20;0.20;;;21.10;70.00;;;;;;5010868;28;20895;-82
2022/09/01 18:26:56;;;;;;;0.20;0.20;;;21.00;70.40;;;;;;5021871;28;20476;-83
2022/09/01 18:29:27;;;;;;;0.20;0.20;;;20.90;70.90;;;;;;5013427;28;20113;-83
2022/09/01 18:32:10;;;;;;;0.30;0.30;;;20.80;71.50;;;;;;5026525;28;20042;-83
2022/09/01 18:34:51;;;;;;;0.20;0.20;;;20.70;71.80;;;;;;5008679;28;20393;-83
2022/09/01 18:37:47;;;;;;;0.20;0.20;;;20.60;72.30;;;;;;5011872;28;20048;-83
2022/09/01 18:40:36;;;;;;;0.20;0.20;;;20.50;72.80;;;;;;5009960;28;20056;-83
2022/09/01 18:43:10;;;;;;;0.20;0.20;;;20.30;73.40;;;;;;5022829;28;20136;-83
2022/09/01 18:46:02;;;;;;;0.20;0.20;;;20.30;73.60;;;;;;5027794;28;20049;-82
2022/09/01 18:49:05;;;;;;;0.20;0.20;;;20.30;74.20;;;;;;5025332;28;20045;-83
2022/09/01 18:51:55;;;;;;;0.20;0.20;;;20.20;74.50;;;;;;5007450;28;20046;-83
2022/09/01 18:54:49;;;;;;;0.20;0.20;;;20.10;75.00;;;;;;5023139;28;20069;-83
2022/09/01 18:57:22;;;;;;;0.20;0.20;;;20.10;75.30;;;;;;5022939;28;20049;-83
2022/09/01 19:00:09;;;;;;;0.20;0.20;;;20.00;75.70;;;;;;5016296;28;20550;-84
2022/09/01 19:02:52;;;;;;;0.20;0.20;;;19.90;76.00;;;;;;5011868;28;20081;-82
2022/09/01 19:05:37;;;;;;;0.20;0.20;;;19.90;76.60;;;;;;5026756;28;20099;-82
2022/09/01 19:08:46;;;;;;;0.20;0.20;;;19.80;77.00;;;;;;5013744;28;20175;-82
2022/09/01 19:11:30;;;;;;;0.20;0.20;;;19.60;77.40;;;;;;5028094;28;20728;-83
2022/09/01 19:14:05;;;;;;;0.20;0.20;;;19.60;77.80;;;;;;5026434;28;20452;-82
2022/09/01 19:16:36;;;;;;;0.20;0.20;;;19.60;78.20;;;;;;5029409;28;20042;-82
2022/09/01 19:19:10;;;;;;;0.20;0.20;;;19.50;78.70;;;;;;5017620;28;20077;-82
2022/09/01 19:21:38;;;;;;;0.10;0.10;;;19.40;79.10;;;;;;5024353;28;20065;-83
2022/09/01 19:24:16;;;;;;;0.20;0.20;;;19.40;79.50;;;;;;5026594;28;20077;-82
2022/09/01 19:27:07;;;;;;;0.20;0.20;;;19.40;79.90;;;;;;5027020;28;20476;-83
2022/09/01 19:29:41;;;;;;;0.20;0.20;;;19.30;80.40;;;;;;5011723;28;20496;-82
2022/09/01 19:32:16;;;;;;;0.20;0.20;;;19.20;80.90;;;;;;5023837;28;20431;-82
2022/09/01 19:34:52;;;;;;;0.20;0.20;;;19.30;81.30;;;;;;5010809;28;20057;-82
2022/09/01 19:37:17;;;;;;;0.10;0.10;;;19.20;81.70;;;;;;5018597;28;20147;-82
2022/09/01 19:39:46;;;;;;;0.20;0.20;;;19.10;82.10;;;;;;5031638;28;20065;-82
2022/09/01 19:42:31;;;;;;;0.20;0.20;;;19.10;82.60;;;;;;5028473;28;20117;-82